Brevik Bridge — VRHY7 — position and weather

sailwx.info

Track history (hours):
 
Tides and Currents Weather Stations Pressure Air Temp Water Temp Dewpoint Dewpoint Depression Visibility Wind Speed Wind Dir Waves Ship Positions

Brevik Bridge

Last reported at 2014-Sep-16 14:33 UTC. Time now 2014-Sep-16 15:30 UTC.
Position N 01°12' E 103°52'.

Length 268 m; draft 12.9 m.

Type: Cargo ship. MMSI: 477866200.

Date/timePositionNaut miles runAvg speedWind from/ knotsBaromVisibWave heightAir tempDewpointWater temp
2014-Sep-16 14:33N 01°12' E 103°52'2 2.4
2014-Sep-16 13:33N 01°14' E 103°53'0 0.0
2014-Sep-16 12:27N 01°14' E 103°53'0 0.0
2014-Sep-16 11:30N 01°14' E 103°53'0 0.3
2014-Sep-16 10:33N 01°14' E 103°53'6 6.5
2014-Sep-16 09:33N 01°15' E 103°47'2 2.0
2014-Sep-16 08:28N 01°17' E 103°46'0 0.0
2014-Sep-16 07:31N 01°17' E 103°46'0 0.1
2014-Sep-16 06:34N 01°17' E 103°46'0 0.1
2014-Sep-16 05:31N 01°17' E 103°46'0 0.0
2014-Sep-16 04:31N 01°17' E 103°46'0 0.0
2014-Sep-16 03:31N 01°17' E 103°46'0 0.1
2014-Sep-16 02:31N 01°17' E 103°46'0 0.1
2014-Sep-16 01:31N 01°17' E 103°46'0 0.1
2014-Sep-16 00:25N 01°17' E 103°46'0 0.1
2014-Sep-15 23:31N 01°17' E 103°46'0 0.1
2014-Sep-15 22:31N 01°17' E 103°46'0 0.1
2014-Sep-15 21:31N 01°17' E 103°46'0 0.0
2014-Sep-15 20:31N 01°17' E 103°46'0 0.0
2014-Sep-15 19:25N 01°17' E 103°46'0 0.0
2014-Sep-15 18:31N 01°17' E 103°46'0 0.0
2014-Sep-15 17:28N 01°17' E 103°46'0 0.0
2014-Sep-15 16:31N 01°17' E 103°46'0 0.0
2014-Sep-15 15:31N 01°17' E 103°46'0 0.1
2014-Sep-15 14:31N 01°17' E 103°46'0 0.0
2014-Sep-15 13:31N 01°17' E 103°46'0 0.1
2014-Sep-15 12:31N 01°17' E 103°46'1 1.3
2014-Sep-15 11:33N 01°17' E 103°45'1 0.7
2014-Sep-15 10:33N 01°17' E 103°45'6 5.3
2014-Sep-15 09:28N 01°13' E 103°49'0 0.0
2014-Sep-15 08:10N 01°13' E 103°49'0 0.1
2014-Sep-15 07:22N 01°13' E 103°49'0 0.1
2014-Sep-15 06:22N 01°13' E 103°49'0 0.0
2014-Sep-15 05:22N 01°13' E 103°49'0 0.2
2014-Sep-15 04:19N 01°13' E 103°49'0 0.1
2014-Sep-15 03:28N 01°13' E 103°49'0 0.0
2014-Sep-15 02:25N 01°13' E 103°49'0 0.0
2014-Sep-15 01:28N 01°13' E 103°49'0 0.0
2014-Sep-15 00:31N 01°13' E 103°49'0 0.1
2014-Sep-14 23:31N 01°13' E 103°49'0 0.1
2014-Sep-14 22:28N 01°13' E 103°49'0 0.1
2014-Sep-14 21:28N 01°13' E 103°49'0 0.1
2014-Sep-14 20:31N 01°13' E 103°49'0 0.0
2014-Sep-14 19:31N 01°13' E 103°49'0 0.0
2014-Sep-14 18:31N 01°13' E 103°49'0 0.0
2014-Sep-14 17:31N 01°13' E 103°49'0 0.0
2014-Sep-14 16:31N 01°13' E 103°49'0 0.1
2014-Sep-14 15:31N 01°13' E 103°49'4 4.7
2014-Sep-14 14:33N 01°13' E 103°54'8 7.5
2014-Sep-14 13:33N 01°16' E 104°01'9 7.8
2014-Sep-14 12:21N 01°17' E 104°10'  
2014-Sep-09 22:27N 22°07' E 114°21'1011.5
2014-Sep-09 21:33N 22°12' E 114°11'1010.2
2014-Sep-09 20:33N 22°20' E 114°05'1111.1
2014-Sep-09 19:33N 22°24' E 113°53'3 2.9
2014-Sep-09 18:32N 22°27' E 113°54'0 0.0
2014-Sep-09 17:32N 22°27' E 113°54'0 0.0
2014-Sep-09 16:32N 22°27' E 113°54'0 0.0
2014-Sep-09 15:32N 22°27' E 113°54'0 0.0
2014-Sep-09 14:32N 22°27' E 113°54'0 0.0
2014-Sep-09 13:32N 22°27' E 113°54'0 0.0
2014-Sep-09 12:26N 22°27' E 113°54'0 0.0
2014-Sep-09 11:32N 22°27' E 113°54'0 0.0
2014-Sep-09 10:32N 22°27' E 113°54'0 0.0
2014-Sep-09 09:32N 22°27' E 113°54'0 0.0
2014-Sep-09 08:29N 22°27' E 113°54'0 0.0
2014-Sep-09 07:32N 22°27' E 113°54'0 0.0
2014-Sep-09 06:29N 22°27' E 113°54'0 0.1
2014-Sep-09 05:33N 22°27' E 113°54'9 9.3
2014-Sep-09 04:33N 22°21' E 114°01'3 1.6
2014-Sep-09 02:33N 22°20' E 114°04'0 0.2
2014-Sep-09 01:33N 22°20' E 114°04'0 0.1
2014-Sep-09 00:27N 22°20' E 114°04'0 0.1
2014-Sep-08 23:33N 22°20' E 114°04'0 0.0
2014-Sep-08 21:33N 22°20' E 114°04'0 0.1
2014-Sep-08 19:33N 22°20' E 114°05'0 0.1
2014-Sep-08 15:27N 22°20' E 114°04'0 0.1
2014-Sep-08 14:33N 22°20' E 114°04'0 0.0
2014-Sep-08 13:15N 22°20' E 114°04'0 0.0
2014-Sep-08 11:33N 22°20' E 114°04'0 0.0
2014-Sep-08 10:15N 22°20' E 114°04'0 0.0
2014-Sep-08 09:03N 22°20' E 114°04'0 0.0
2014-Sep-08 08:15N 22°20' E 114°04'0 0.0
2014-Sep-08 07:33N 22°20' E 114°04'2 1.1
2014-Sep-08 05:24N 22°20' E 114°07'0 0.0
2014-Sep-07 19:18N 22°20' E 114°07'11 8.7
2014-Sep-07 18:06N 22°11' E 114°12'14915.4
2014-Sep-07 08:23N 22°44' E 116°50'1617.7
2014-Sep-07 07:27N 22°55' E 117°03'5617.5
2014-Sep-07 04:14N 23°34' E 117°48'1217.3
2014-Sep-07 03:32N 23°42' E 117°57'1717.4
2014-Sep-07 02:33N 23°54' E 118°10'1615.3
2014-Sep-07 01:32N 24°07' E 118°20'1212.4
2014-Sep-07 00:33N 24°17' E 118°13'1111.3
2014-Sep-06 23:33N 24°25' E 118°05'4 3.8
2014-Sep-06 22:31N 24°27' E 118°01'0 0.0
2014-Sep-06 21:31N 24°27' E 118°01'0 0.0
2014-Sep-06 20:31N 24°27' E 118°01'0 0.0
2014-Sep-06 19:25N 24°27' E 118°01'0 0.0
2014-Sep-06 18:31N 24°27' E 118°01'0 0.0
2014-Sep-06 17:31N 24°27' E 118°01'0 0.0
2014-Sep-06 16:25N 24°27' E 118°01'0 0.0
2014-Sep-06 15:25N 24°27' E 118°01'  
Track history (hours):
 
Tides and Currents Weather Stations Pressure Air Temp Water Temp Dewpoint Dewpoint Depression Visibility Wind Speed Wind Dir Waves Ship Positions

Brevik Bridge

Last reported at 2014-Sep-16 14:33 UTC. Time now 2014-Sep-16 15:30 UTC.
Position N 01°12' E 103°52'.

Length 268 m; draft 12.9 m.

Type: Cargo ship. MMSI: 477866200.

Date/timePositionNaut miles runAvg speedWind from/ knotsBaromVisibWave heightAir tempDewpointWater temp
2014-Sep-16 14:33N 01°12' E 103°52'2 2.4
2014-Sep-16 13:33N 01°14' E 103°53'0 0.0
2014-Sep-16 12:27N 01°14' E 103°53'0 0.0
2014-Sep-16 11:30N 01°14' E 103°53'0 0.3
2014-Sep-16 10:33N 01°14' E 103°53'6 6.5
2014-Sep-16 09:33N 01°15' E 103°47'2 2.0
2014-Sep-16 08:28N 01°17' E 103°46'0 0.0
2014-Sep-16 07:31N 01°17' E 103°46'0 0.1
2014-Sep-16 06:34N 01°17' E 103°46'0 0.1
2014-Sep-16 05:31N 01°17' E 103°46'0 0.0
2014-Sep-16 04:31N 01°17' E 103°46'0 0.0
2014-Sep-16 03:31N 01°17' E 103°46'0 0.1
2014-Sep-16 02:31N 01°17' E 103°46'0 0.1
2014-Sep-16 01:31N 01°17' E 103°46'0 0.1
2014-Sep-16 00:25N 01°17' E 103°46'0 0.1
2014-Sep-15 23:31N 01°17' E 103°46'0 0.1
2014-Sep-15 22:31N 01°17' E 103°46'0 0.1
2014-Sep-15 21:31N 01°17' E 103°46'0 0.0
2014-Sep-15 20:31N 01°17' E 103°46'0 0.0
2014-Sep-15 19:25N 01°17' E 103°46'0 0.0
2014-Sep-15 18:31N 01°17' E 103°46'0 0.0
2014-Sep-15 17:28N 01°17' E 103°46'0 0.0
2014-Sep-15 16:31N 01°17' E 103°46'0 0.0
2014-Sep-15 15:31N 01°17' E 103°46'0 0.1
2014-Sep-15 14:31N 01°17' E 103°46'0 0.0
2014-Sep-15 13:31N 01°17' E 103°46'0 0.1
2014-Sep-15 12:31N 01°17' E 103°46'1 1.3
2014-Sep-15 11:33N 01°17' E 103°45'1 0.7
2014-Sep-15 10:33N 01°17' E 103°45'6 5.3
2014-Sep-15 09:28N 01°13' E 103°49'0 0.0
2014-Sep-15 08:10N 01°13' E 103°49'0 0.1
2014-Sep-15 07:22N 01°13' E 103°49'0 0.1
2014-Sep-15 06:22N 01°13' E 103°49'0 0.0
2014-Sep-15 05:22N 01°13' E 103°49'0 0.2
2014-Sep-15 04:19N 01°13' E 103°49'0 0.1
2014-Sep-15 03:28N 01°13' E 103°49'0 0.0
2014-Sep-15 02:25N 01°13' E 103°49'0 0.0
2014-Sep-15 01:28N 01°13' E 103°49'0 0.0
2014-Sep-15 00:31N 01°13' E 103°49'0 0.1
2014-Sep-14 23:31N 01°13' E 103°49'0 0.1
2014-Sep-14 22:28N 01°13' E 103°49'0 0.1
2014-Sep-14 21:28N 01°13' E 103°49'0 0.1
2014-Sep-14 20:31N 01°13' E 103°49'0 0.0
2014-Sep-14 19:31N 01°13' E 103°49'0 0.0
2014-Sep-14 18:31N 01°13' E 103°49'0 0.0
2014-Sep-14 17:31N 01°13' E 103°49'0 0.0
2014-Sep-14 16:31N 01°13' E 103°49'0 0.1
2014-Sep-14 15:31N 01°13' E 103°49'4 4.7
2014-Sep-14 14:33N 01°13' E 103°54'8 7.5
2014-Sep-14 13:33N 01°16' E 104°01'9 7.8
2014-Sep-14 12:21N 01°17' E 104°10'  
2014-Sep-09 22:27N 22°07' E 114°21'1011.5
2014-Sep-09 21:33N 22°12' E 114°11'1010.2
2014-Sep-09 20:33N 22°20' E 114°05'1111.1
2014-Sep-09 19:33N 22°24' E 113°53'3 2.9
2014-Sep-09 18:32N 22°27' E 113°54'0 0.0
2014-Sep-09 17:32N 22°27' E 113°54'0 0.0
2014-Sep-09 16:32N 22°27' E 113°54'0 0.0
2014-Sep-09 15:32N 22°27' E 113°54'0 0.0
2014-Sep-09 14:32N 22°27' E 113°54'0 0.0
2014-Sep-09 13:32N 22°27' E 113°54'0 0.0
2014-Sep-09 12:26N 22°27' E 113°54'0 0.0
2014-Sep-09 11:32N 22°27' E 113°54'0 0.0
2014-Sep-09 10:32N 22°27' E 113°54'0 0.0
2014-Sep-09 09:32N 22°27' E 113°54'0 0.0
2014-Sep-09 08:29N 22°27' E 113°54'0 0.0
2014-Sep-09 07:32N 22°27' E 113°54'0 0.0
2014-Sep-09 06:29N 22°27' E 113°54'0 0.1
2014-Sep-09 05:33N 22°27' E 113°54'9 9.3
2014-Sep-09 04:33N 22°21' E 114°01'3 1.6
2014-Sep-09 02:33N 22°20' E 114°04'0 0.2
2014-Sep-09 01:33N 22°20' E 114°04'0 0.1
2014-Sep-09 00:27N 22°20' E 114°04'0 0.1
2014-Sep-08 23:33N 22°20' E 114°04'0 0.0
2014-Sep-08 21:33N 22°20' E 114°04'0 0.1
2014-Sep-08 19:33N 22°20' E 114°05'0 0.1
2014-Sep-08 15:27N 22°20' E 114°04'0 0.1
2014-Sep-08 14:33N 22°20' E 114°04'0 0.0
2014-Sep-08 13:15N 22°20' E 114°04'0 0.0
2014-Sep-08 11:33N 22°20' E 114°04'0 0.0
2014-Sep-08 10:15N 22°20' E 114°04'0 0.0
2014-Sep-08 09:03N 22°20' E 114°04'0 0.0
2014-Sep-08 08:15N 22°20' E 114°04'0 0.0
2014-Sep-08 07:33N 22°20' E 114°04'2 1.1
2014-Sep-08 05:24N 22°20' E 114°07'0 0.0
2014-Sep-07 19:18N 22°20' E 114°07'11 8.7
2014-Sep-07 18:06N 22°11' E 114°12'14915.4
2014-Sep-07 08:23N 22°44' E 116°50'1617.7
2014-Sep-07 07:27N 22°55' E 117°03'5617.5
2014-Sep-07 04:14N 23°34' E 117°48'1217.3
2014-Sep-07 03:32N 23°42' E 117°57'1717.4
2014-Sep-07 02:33N 23°54' E 118°10'1615.3
2014-Sep-07 01:32N 24°07' E 118°20'1212.4
2014-Sep-07 00:33N 24°17' E 118°13'1111.3
2014-Sep-06 23:33N 24°25' E 118°05'4 3.8
2014-Sep-06 22:31N 24°27' E 118°01'0 0.0
2014-Sep-06 21:31N 24°27' E 118°01'0 0.0
2014-Sep-06 20:31N 24°27' E 118°01'0 0.0
2014-Sep-06 19:25N 24°27' E 118°01'0 0.0
2014-Sep-06 18:31N 24°27' E 118°01'0 0.0
2014-Sep-06 17:31N 24°27' E 118°01'0 0.0
2014-Sep-06 16:25N 24°27' E 118°01'0 0.0
2014-Sep-06 15:25N 24°27' E 118°01'  

Dump ship's entire track history